Terminal Aerodrome Forecast
Issued by NWS Wilmington, OH

Current Version | Previous Version | Graphics & Text | Print | Product List | Glossary On
Versions: 1 2 3 4 5 6 7 8 9 10 11 12 13 14 15 16 17 18
000
FTUS41 KILN 170500
TAFCMH
TAF
KCMH 170534Z 1706/1806 00000KT P6SM SKC
     FM170800 00000KT 4SM BR SKC
     FM171200 00000KT P6SM SKC
     FM171400 VRB03KT P6SM SCT030
     FM171800 26004KT P6SM SCT035 SCT120
     FM172300 35004KT P6SM FEW100=

USA.gov is the U.S. government's official web portal to all federal, state and local government web resources and services.